Time;durP1;ratioP1;P1;durP2;ratioP2;P2;SDS_P1;SDS_P2;PMS_P1;PMS_P2;Temp;Humidity;BMP_temperature;BMP_pressure;BME280_temperature;BME280_humidity;BME280_pressure;Samples;Min_cycle;Max_cycle;Signal;HPM_P1;HPM_P2
2024/03/10 00:00:24;;;;;;;61.30;38.10;;;;;;;-0.36;86.88;101308.84;104615;1258;73132;-65
2024/03/10 00:03:11;;;;;;;63.90;38.40;;;;;;;-0.38;86.83;101310.45;108232;1253;139055;-66
2024/03/10 00:05:38;;;;;;;58.40;38.20;;;;;;;-0.39;86.90;101301.90;109133;1253;60228;-66
2024/03/10 00:08:05;;;;;;;63.40;38.10;;;;;;;-0.38;86.77;101304.07;108865;1254;138822;-67
2024/03/10 00:10:37;;;;;;;68.60;40.70;;;;;;;-0.37;86.92;101306.20;105018;1257;67490;-67
2024/03/10 00:13:04;;;;;;;59.80;36.90;;;;;;;-0.36;86.85;101306.77;105014;1257;71214;-66
2024/03/10 00:15:31;;;;;;;62.40;38.40;;;;;;;-0.37;86.74;101307.98;105116;1254;61355;-66
2024/03/10 00:17:58;;;;;;;64.60;38.20;;;;;;;-0.38;86.78;101308.91;105023;1256;61231;-66
2024/03/10 00:20:25;;;;;;;59.70;37.80;;;;;;;-0.39;86.89;101301.73;104833;1254;138959;-65
2024/03/10 00:22:52;;;;;;;61.80;38.70;;;;;;;-0.39;86.86;101302.45;104970;1254;66048;-66
2024/03/10 00:25:19;;;;;;;60.00;38.50;;;;;;;-0.38;86.90;101303.51;104902;1256;139279;-65
2024/03/10 00:27:46;;;;;;;61.30;38.70;;;;;;;-0.39;86.91;101302.61;108985;1254;59032;-65
2024/03/10 00:30:12;;;;;;;58.10;38.20;;;;;;;-0.38;87.09;101300.99;109131;1254;61457;-67
2024/03/10 00:32:39;;;;;;;62.10;38.30;;;;;;;-0.36;87.08;101301.45;108926;1254;138681;-67
2024/03/10 00:35:06;;;;;;;56.70;37.20;;;;;;;-0.36;86.92;101309.02;105791;1254;64055;-67
2024/03/10 00:37:33;;;;;;;64.10;39.10;;;;;;;-0.38;87.07;101311.10;104867;1254;138866;-66
2024/03/10 00:40:01;;;;;;;59.40;37.20;;;;;;;-0.37;86.95;101311.54;104964;1254;61579;-66
2024/03/10 00:42:29;;;;;;;58.80;37.00;;;;;;;-0.37;87.12;101312.59;107996;1254;61228;-66
2024/03/10 00:44:57;;;;;;;61.60;37.70;;;;;;;-0.37;87.00;101302.59;104836;1254;138794;-66
2024/03/10 00:47:24;;;;;;;58.80;38.80;;;;;;;-0.39;86.96;101302.27;109155;1254;65922;-66
2024/03/10 00:49:51;;;;;;;61.90;39.00;;;;;;;-0.39;87.08;101306.20;105804;1254;139030;-67
2024/03/10 00:52:17;;;;;;;59.50;37.60;;;;;;;-0.40;87.08;101304.94;104865;1260;61203;-65
2024/03/10 00:54:44;;;;;;;61.40;39.00;;;;;;;-0.40;87.16;101306.84;104959;1257;62877;-66
2024/03/10 00:57:11;;;;;;;64.10;39.70;;;;;;;-0.40;87.01;101304.44;104950;1254;139161;-66
2024/03/10 00:59:38;;;;;;;62.30;38.20;;;;;;;-0.41;86.95;101302.45;104874;1255;65790;-66
2024/03/10 01:02:05;;;;;;;60.50;39.30;;;;;;;-0.43;87.01;101296.98;104865;1253;138720;-66
2024/03/10 01:04:33;;;;;;;61.00;37.30;;;;;;;-0.42;87.12;101295.47;105826;1255;61352;-66
2024/03/10 01:07:00;;;;;;;60.10;37.30;;;;;;;-0.43;87.16;101295.45;109080;1254;59327;-66
2024/03/10 01:09:27;;;;;;;62.30;37.50;;;;;;;-0.42;87.17;101300.13;108804;1253;138221;-66
2024/03/10 01:11:53;;;;;;;59.20;37.40;;;;;;;-0.43;87.19;101299.59;109064;1254;66460;-66
2024/03/10 01:14:20;;;;;;;63.60;38.60;;;;;;;-0.43;87.19;101296.98;109111;1253;139262;-66
2024/03/10 01:16:48;;;;;;;62.20;38.60;;;;;;;-0.44;87.14;101296.07;109111;1254;59221;-67
2024/03/10 01:19:15;;;;;;;61.50;39.50;;;;;;;-0.43;87.28;101292.98;108931;1253;138777;-66
2024/03/10 01:21:45;;;;;;;57.10;36.10;;;;;;;-0.43;87.15;101287.13;109134;1253;73544;-66
2024/03/10 01:24:12;;;;;;;58.90;38.40;;;;;;;-0.44;87.14;101288.59;108598;1255;66106;-66
2024/03/10 01:26:39;;;;;;;63.90;37.70;;;;;;;-0.45;87.11;101286.27;104917;1257;138511;-64
2024/03/10 01:29:06;;;;;;;59.10;36.90;;;;;;;-0.45;86.98;101287.45;104956;1258;61223;-65
2024/03/10 01:31:32;;;;;;;61.90;37.50;;;;;;;-0.46;87.10;101287.77;104861;1257;138987;-65
2024/03/10 01:33:59;;;;;;;65.10;38.30;;;;;;;-0.46;87.18;101280.48;105014;1257;73860;-65
2024/03/10 01:36:26;;;;;;;57.40;35.90;;;;;;;-0.48;87.14;101282.10;105052;1258;67447;-66
2024/03/10 01:38:52;;;;;;;65.30;40.30;;;;;;;-0.50;87.15;101280.33;104946;1255;138597;-66
2024/03/10 01:41:19;;;;;;;61.10;39.00;;;;;;;-0.54;87.18;101284.39;105103;1255;61243;-65
2024/03/10 01:43:47;;;;;;;61.00;38.90;;;;;;;-0.58;87.19;101288.06;104827;1257;138806;-64
2024/03/10 01:46:14;;;;;;;66.80;40.50;;;;;;;-0.61;87.27;101283.86;109057;1254;75261;-65
2024/03/10 01:48:41;;;;;;;62.00;39.80;;;;;;;-0.63;87.24;101282.52;109086;1253;64974;-65
2024/03/10 01:51:08;;;;;;;59.50;36.10;;;;;;;-0.65;87.22;101277.14;109065;1254;138402;-66
2024/03/10 01:53:35;;;;;;;56.00;36.90;;;;;;;-0.65;87.16;101282.14;109166;1254;59006;-66
2024/03/10 01:56:03;;;;;;;62.00;36.80;;;;;;;-0.67;87.24;101281.84;108943;1254;138969;-66
2024/03/10 01:58:35;;;;;;;65.40;38.40;;;;;;;-0.67;87.36;101279.04;109128;1253;72610;-66
2024/03/10 02:01:03;;;;;;;57.50;36.50;;;;;;;-0.69;87.42;101279.11;108905;1254;65782;-66
2024/03/10 02:03:30;;;;;;;63.20;37.70;;;;;;;-0.69;87.41;101278.02;107109;1255;138748;-66
2024/03/10 02:05:57;;;;;;;57.50;37.40;;;;;;;-0.70;87.37;101280.38;109031;1254;59339;-65
2024/03/10 02:08:23;;;;;;;52.50;34.30;;;;;;;-0.70;87.40;101279.87;107588;1254;138670;-67
2024/03/10 02:10:52;;;;;;;64.60;37.00;;;;;;;-0.70;87.43;101272.96;104962;1254;74679;-69
2024/03/10 02:13:18;;;;;;;63.70;37.70;;;;;;;-0.71;87.54;101269.30;104832;1258;138999;-68
2024/03/10 02:16:02;;;;;;;54.60;35.00;;;;;;;-0.71;87.55;101267.37;104888;1256;73671;-69
2024/03/10 02:18:30;;;;;;;59.10;37.30;;;;;;;-0.72;87.52;101266.56;106040;1256;61251;-67
2024/03/10 02:20:58;;;;;;;61.50;38.10;;;;;;;-0.74;87.63;101267.27;109121;1254;138903;-67
2024/03/10 02:23:46;;;;;;;61.20;36.90;;;;;;;-0.76;87.53;101266.77;109175;1253;73084;-67
2024/03/10 02:26:15;;;;;;;60.90;37.20;;;;;;;-0.80;87.35;101270.16;108647;1259;138716;-67
2024/03/10 02:29:15;;;;;;;62.10;39.30;;;;;;;-0.81;87.48;101267.14;108722;1260;73963;-67
2024/03/10 02:48:09;;;;;;;56.60;35.80;;;;;;;-0.89;87.65;101256.84;104603;1262;61359;-66
2024/03/10 02:50:36;;;;;;;59.50;35.90;;;;;;;-0.91;87.49;101249.77;104549;1264;138683;-67
2024/03/10 02:53:04;;;;;;;55.80;35.10;;;;;;;-0.93;87.71;101245.13;104492;1265;67359;-66
2024/03/10 02:55:32;;;;;;;59.70;35.70;;;;;;;-0.96;87.70;101246.30;104476;1260;138844;-67
2024/03/10 02:58:04;;;;;;;53.80;33.70;;;;;;;-0.97;87.57;101249.84;106158;1260;61379;-67
2024/03/10 03:00:31;;;;;;;57.20;36.30;;;;;;;-0.96;87.89;101247.10;105275;1266;61283;-67
2024/03/10 03:02:59;;;;;;;51.60;33.10;;;;;;;-0.95;87.72;101248.63;104791;1262;138771;-68
2024/03/10 03:05:26;;;;;;;51.50;31.90;;;;;;;-0.95;87.95;101247.55;105786;1258;67195;-67
2024/03/10 03:07:57;;;;;;;55.20;34.50;;;;;;;-0.95;87.86;101246.32;104941;1256;138721;-66
2024/03/10 03:10:24;;;;;;;55.10;33.80;;;;;;;-0.95;87.87;101258.60;104920;1255;61296;-67
2024/03/10 03:12:53;;;;;;;56.80;33.90;;;;;;;-0.95;87.86;101263.71;104975;1255;61228;-67
2024/03/10 03:15:19;;;;;;;56.00;34.00;;;;;;;-1.01;87.64;101265.36;109065;1254;138602;-65
2024/03/10 03:17:46;;;;;;;55.40;34.90;;;;;;;-1.01;87.57;101267.42;109159;1253;64497;-65
2024/03/10 03:20:15;;;;;;;52.30;33.50;;;;;;;-1.02;87.80;101262.55;109057;1253;138560;-65
2024/03/10 03:22:43;;;;;;;60.10;33.20;;;;;;;-1.01;87.62;101262.29;109118;1254;63360;-65
2024/03/10 03:25:11;;;;;;;55.50;34.00;;;;;;;-1.01;87.54;101265.39;108241;1256;61258;-65
2024/03/10 03:27:44;;;;;;;55.40;34.40;;;;;;;-1.04;87.65;101255.69;109128;1254;75718;-65
2024/03/10 03:30:11;;;;;;;52.30;33.40;;;;;;;-0.98;87.59;101257.86;109198;1254;66919;-66
2024/03/10 03:32:38;;;;;;;53.00;33.30;;;;;;;-0.95;87.65;101258.40;105585;1254;139138;-66
2024/03/10 03:35:05;;;;;;;56.50;33.80;;;;;;;-0.95;87.54;101258.09;104975;1256;61250;-66
2024/03/10 03:37:31;;;;;;;51.80;32.50;;;;;;;-0.95;87.60;101263.20;104668;1260;138798;-66
2024/03/10 03:39:58;;;;;;;53.70;33.40;;;;;;;-0.95;87.84;101264.24;104947;1255;73857;-66
2024/03/10 03:42:25;;;;;;;53.20;32.70;;;;;;;-0.96;87.75;101266.61;104976;1257;67532;-66
2024/03/10 03:44:51;;;;;;;54.40;33.10;;;;;;;-0.98;87.66;101268.90;104898;1255;139267;-67
2024/03/10 03:47:18;;;;;;;53.50;33.90;;;;;;;-1.00;87.57;101265.83;105116;1256;60075;-67
2024/03/10 03:49:45;;;;;;;51.70;31.80;;;;;;;-1.00;87.72;101261.46;104875;1258;138730;-67
2024/03/10 03:52:12;;;;;;;53.70;32.90;;;;;;;-1.02;87.66;101260.29;105000;1258;74998;-68
2024/03/10 03:54:42;;;;;;;51.50;32.30;;;;;;;-1.05;87.51;101260.73;105025;1258;66747;-68
2024/03/10 03:57:09;;;;;;;57.60;33.40;;;;;;;-1.08;87.49;101258.48;104841;1256;138714;-67
2024/03/10 03:59:38;;;;;;;55.00;33.90;;;;;;;-1.10;87.65;101258.27;104886;1258;61372;-67
2024/03/10 04:02:08;;;;;;;49.50;30.80;;;;;;;-1.11;87.60;101256.11;109024;1254;138654;-67
2024/03/10 04:04:35;;;;;;;53.10;33.70;;;;;;;-1.12;87.61;101252.45;105203;1258;73527;-68
2024/03/10 04:07:04;;;;;;;49.40;32.20;;;;;;;-1.11;87.93;101256.67;105127;1255;66564;-65
2024/03/10 04:09:31;;;;;;;47.60;29.70;;;;;;;-1.10;87.65;101255.54;108920;1254;139823;-66
2024/03/10 04:11:59;;;;;;;53.60;32.00;;;;;;;-1.12;87.42;101252.81;109008;1254;59093;-67
2024/03/10 04:14:26;;;;;;;48.50;31.50;;;;;;;-1.10;87.68;101258.10;106109;1257;139100;-67
2024/03/10 04:16:53;;;;;;;53.20;33.10;;;;;;;-1.07;87.73;101254.42;104944;1258;75380;-66
2024/03/10 04:19:20;;;;;;;54.00;32.70;;;;;;;-1.05;87.74;101256.95;104912;1256;139761;-68
2024/03/10 04:21:48;;;;;;;55.80;33.50;;;;;;;-1.03;87.64;101254.39;105031;1258;70801;-68
2024/03/10 04:24:15;;;;;;;50.20;32.60;;;;;;;-1.05;87.67;101258.54;105419;1257;61982;-69
2024/03/10 04:26:42;;;;;;;51.50;31.80;;;;;;;-1.05;87.61;101256.48;104925;1255;138708;-68
2024/03/10 04:29:10;;;;;;;64.70;37.80;;;;;;;-1.01;87.69;101261.91;106891;1258;73950;-68
2024/03/10 04:31:36;;;;;;;53.00;32.50;;;;;;;-1.01;87.56;101258.30;104778;1258;138979;-68
2024/03/10 04:34:03;;;;;;;53.70;30.50;;;;;;;-1.00;87.62;101260.11;104760;1256;72200;-68
2024/03/10 04:36:30;;;;;;;54.00;32.80;;;;;;;-0.98;87.66;101257.85;104961;1256;61340;-65
2024/03/10 04:38:57;;;;;;;54.10;33.10;;;;;;;-0.98;87.65;101260.60;104847;1258;138519;-67
2024/03/10 04:41:23;;;;;;;53.00;32.60;;;;;;;-0.97;87.58;101258.95;104921;1255;75649;-67
2024/03/10 04:43:51;;;;;;;55.30;31.80;;;;;;;-0.96;87.39;101258.53;104797;1254;138895;-67
2024/03/10 04:46:23;;;;;;;55.70;33.90;;;;;;;-0.97;87.57;101259.10;104902;1256;72607;-67
2024/03/10 04:48:50;;;;;;;52.40;33.60;;;;;;;-0.97;87.49;101262.06;105070;1258;61611;-67
2024/03/10 04:51:17;;;;;;;49.60;31.90;;;;;;;-0.93;87.48;101261.48;104850;1256;138488;-66
2024/03/10 04:53:43;;;;;;;51.50;31.70;;;;;;;-0.93;87.46;101259.10;104974;1258;75632;-67
2024/03/10 04:56:13;;;;;;;50.60;32.00;;;;;;;-0.93;87.46;101261.64;104885;1258;139102;-68
2024/03/10 04:58:43;;;;;;;55.30;31.50;;;;;;;-0.93;87.22;101263.73;104947;1258;74835;-68
2024/03/10 05:01:10;;;;;;;51.00;32.60;;;;;;;-0.94;87.15;101260.58;104876;1261;61359;-68
2024/03/10 05:03:37;;;;;;;52.40;31.60;;;;;;;-0.94;87.12;101260.73;104910;1257;138737;-67
2024/03/10 05:06:05;;;;;;;52.00;32.30;;;;;;;-0.93;87.25;101266.35;108802;1256;74482;-67
2024/03/10 05:08:32;;;;;;;64.90;39.70;;;;;;;-0.91;87.28;101265.77;104902;1261;138677;-66
2024/03/10 05:11:09;;;;;;;57.50;32.60;;;;;;;-0.90;87.18;101265.52;109168;1254;72994;-67
2024/03/10 05:13:36;;;;;;;50.70;32.00;;;;;;;-0.87;87.36;101270.77;104782;1256;139599;-66
2024/03/10 05:16:03;;;;;;;54.30;31.40;;;;;;;-0.85;87.19;101266.25;104934;1259;61255;-68
2024/03/10 05:18:31;;;;;;;53.40;33.10;;;;;;;-0.83;87.13;101271.13;105012;1258;73303;-67
2024/03/10 05:20:58;;;;;;;85.40;55.10;;;;;;;-0.81;87.16;101273.13;105077;1256;138957;-67
2024/03/10 05:23:26;;;;;;;56.70;35.60;;;;;;;-0.80;87.08;101279.80;105086;1258;71765;-67
2024/03/10 05:25:52;;;;;;;53.10;33.30;;;;;;;-0.77;86.99;101283.62;104811;1256;139541;-67
2024/03/10 05:28:19;;;;;;;51.90;32.30;;;;;;;-0.73;87.09;101279.10;105001;1256;61299;-67
2024/03/10 05:30:46;;;;;;;52.10;34.10;;;;;;;-0.70;86.96;101277.82;105108;1257;75533;-67
2024/03/10 05:33:13;;;;;;;75.20;44.50;;;;;;;-0.67;87.02;101280.59;104830;1256;138508;-67
2024/03/10 05:35:40;;;;;;;54.30;34.50;;;;;;;-0.65;86.93;101280.27;104937;1257;73596;-67
2024/03/10 05:38:07;;;;;;;54.60;33.50;;;;;;;-0.62;86.77;101273.95;104802;1256;138533;-68
2024/03/10 05:40:33;;;;;;;72.20;43.10;;;;;;;-0.58;86.96;101275.27;105110;1256;61240;-67
2024/03/10 05:43:00;;;;;;;62.90;39.20;;;;;;;-0.54;86.80;101289.54;105022;1255;74346;-67
2024/03/10 05:45:27;;;;;;;59.20;36.00;;;;;;;-0.49;86.99;101288.79;104877;1258;139549;-67
2024/03/10 05:47:54;;;;;;;56.00;34.10;;;;;;;-0.42;86.97;101283.78;104945;1255;73306;-66
2024/03/10 05:50:21;;;;;;;58.60;36.70;;;;;;;-0.36;86.96;101286.60;104759;1259;138591;-66
2024/03/10 05:52:48;;;;;;;60.30;37.60;;;;;;;-0.31;86.84;101284.23;104943;1256;61347;-67
2024/03/10 05:55:15;;;;;;;48.80;32.90;;;;;;;-0.23;86.96;101281.79;104949;1257;138724;-66
2024/03/10 05:57:42;;;;;;;49.00;31.00;;;;;;;-0.15;86.97;101282.86;104834;1256;66945;-66
2024/03/10 06:00:16;;;;;;;47.00;31.60;;;;;;;-0.07;86.62;101281.75;104999;1254;73464;-67
2024/03/10 06:02:46;;;;;;;55.40;33.50;;;;;;;-0.02;86.58;101279.94;105846;1254;138570;-66
2024/03/10 06:05:13;;;;;;;52.40;31.40;;;;;;;0.06;86.47;101277.27;104943;1259;61258;-66
2024/03/10 06:07:42;;;;;;;49.90;31.90;;;;;;;0.12;86.56;101274.95;104793;1259;139875;-67
2024/03/10 06:10:11;;;;;;;49.50;32.10;;;;;;;0.17;86.32;101272.73;107548;1254;66454;-67
2024/03/10 06:12:39;;;;;;;50.20;32.80;;;;;;;0.20;86.04;101266.88;105165;1256;73103;-67
2024/03/10 06:15:10;;;;;;;50.40;31.10;;;;;;;0.21;85.98;101264.87;104884;1256;138974;-67
2024/03/10 06:17:40;;;;;;;47.00;30.20;;;;;;;0.21;85.99;101272.30;109217;1254;60150;-67
2024/03/10 06:25:38;;;;;;;53.70;32.40;;;;;;;0.33;86.07;101277.48;108964;1254;138476;-67
2024/03/10 06:28:04;;;;;;;49.00;30.70;;;;;;;0.34;85.88;101280.88;108974;1254;59181;-67
2024/03/10 06:30:31;;;;;;;49.50;31.90;;;;;;;0.39;85.83;101286.63;109249;1254;58975;-66
2024/03/10 06:32:58;;;;;;;49.00;30.00;;;;;;;0.45;85.86;101291.71;109076;1254;138827;-67
2024/03/10 06:35:25;;;;;;;49.50;31.60;;;;;;;0.52;85.90;101289.48;109176;1253;66257;-67
2024/03/10 06:37:51;;;;;;;49.90;31.90;;;;;;;0.61;85.70;101287.50;108853;1253;138785;-67
2024/03/10 06:40:21;;;;;;;55.40;33.20;;;;;;;0.63;85.51;101294.92;109169;1254;59305;-66
2024/03/10 06:42:48;;;;;;;50.00;31.40;;;;;;;0.66;85.72;101300.35;109114;1254;60607;-66
2024/03/10 06:45:14;;;;;;;51.20;33.30;;;;;;;0.68;85.30;101293.25;109031;1253;138447;-66
2024/03/10 06:47:41;;;;;;;53.00;32.80;;;;;;;0.70;85.17;101299.77;105846;1259;66218;-67
2024/03/10 06:50:09;;;;;;;47.50;31.50;;;;;;;0.76;85.67;101296.42;104709;1254;139519;-66
2024/03/10 06:52:37;;;;;;;49.10;29.90;;;;;;;0.80;85.23;101290.63;105130;1257;60021;-66
2024/03/10 06:55:05;;;;;;;46.80;30.60;;;;;;;0.81;85.24;101295.19;104922;1258;60027;-66
2024/03/10 06:57:32;;;;;;;46.00;30.50;;;;;;;0.82;85.23;101301.67;109127;1253;138717;-66
2024/03/10 06:59:59;;;;;;;50.60;30.90;;;;;;;0.86;85.41;101300.58;109086;1254;66758;-66
2024/03/10 07:02:26;;;;;;;45.30;30.00;;;;;;;0.92;85.42;101300.13;108859;1258;138923;-66
2024/03/10 07:04:55;;;;;;;43.50;29.00;;;;;;;1.00;85.60;101298.83;104922;1256;61120;-66
2024/03/10 07:07:22;;;;;;;44.80;30.00;;;;;;;1.06;85.15;101293.76;108979;1253;139459;-67
2024/03/10 07:09:52;;;;;;;43.70;29.70;;;;;;;1.09;85.13;101302.23;105310;1256;74747;-67
2024/03/10 07:12:18;;;;;;;45.40;29.90;;;;;;;1.15;85.10;101304.90;104800;1258;66640;-66
2024/03/10 07:14:45;;;;;;;45.90;30.10;;;;;;;1.25;85.18;101309.54;104685;1256;138218;-67
2024/03/10 07:17:12;;;;;;;46.20;29.20;;;;;;;1.35;85.30;101315.34;104795;1258;61278;-67
2024/03/10 07:19:41;;;;;;;45.10;30.00;;;;;;;1.46;85.15;101312.94;104588;1259;137877;-67
2024/03/10 07:22:08;;;;;;;44.40;29.10;;;;;;;1.50;84.91;101311.73;104865;1259;74661;-67
2024/03/10 07:24:37;;;;;;;45.00;29.50;;;;;;;1.51;84.73;101307.30;104856;1262;66915;-67
2024/03/10 07:27:05;;;;;;;44.00;29.20;;;;;;;1.59;84.57;101313.53;108521;1258;138319;-67
2024/03/10 07:29:32;;;;;;;44.90;29.40;;;;;;;1.66;84.59;101309.71;104587;1265;61231;-67
2024/03/10 07:31:59;;;;;;;44.80;29.90;;;;;;;1.74;84.41;101300.56;108680;1254;138477;-67
2024/03/10 07:34:27;;;;;;;42.50;28.90;;;;;;;1.79;84.05;101307.33;106847;1258;74275;-67
2024/03/10 07:36:53;;;;;;;46.80;29.80;;;;;;;1.86;84.22;101309.33;104815;1256;65564;-67
2024/03/10 07:39:21;;;;;;;47.50;28.90;;;;;;;1.91;83.93;101309.02;104629;1255;138837;-67
2024/03/10 07:41:48;;;;;;;44.30;29.70;;;;;;;1.97;83.89;101305.92;104560;1258;60381;-67
2024/03/10 07:44:15;;;;;;;44.30;28.60;;;;;;;1.97;83.44;101300.20;104603;1258;138284;-67
2024/03/10 07:46:43;;;;;;;44.30;29.30;;;;;;;1.98;83.38;101300.43;108863;1253;75497;-67
2024/03/10 07:49:10;;;;;;;46.80;28.50;;;;;;;1.97;83.19;101297.11;108890;1254;64707;-68
2024/03/10 07:51:37;;;;;;;48.90;28.90;;;;;;;1.98;83.20;101296.65;108726;1255;72938;-68
2024/03/10 07:54:04;;;;;;;46.90;30.00;;;;;;;2.02;83.18;101301.77;108694;1254;59967;-68
2024/03/10 07:56:32;;;;;;;44.40;28.10;;;;;;;2.06;83.12;101304.98;108782;1256;138957;-67
2024/03/10 07:58:59;;;;;;;42.10;27.50;;;;;;;2.12;83.05;101301.63;106743;1258;72905;-61
2024/03/10 08:01:25;;;;;;;43.80;29.00;;;;;;;2.21;82.99;101306.20;104809;1261;139265;-62
2024/03/10 08:03:54;;;;;;;40.80;27.50;;;;;;;2.34;83.00;101313.29;104784;1256;73633;-62
2024/03/10 08:06:21;;;;;;;40.10;27.70;;;;;;;2.47;82.90;101315.39;104916;1261;61787;-62
2024/03/10 08:08:48;;;;;;;44.00;28.30;;;;;;;2.59;82.64;101309.37;104674;1256;138594;-63
2024/03/10 08:11:15;;;;;;;41.80;27.90;;;;;;;2.68;82.43;101310.86;104695;1258;75286;-65
2024/03/10 08:13:44;;;;;;;44.30;27.60;;;;;;;2.82;82.41;101320.41;104623;1259;137958;-65
2024/03/10 08:16:11;;;;;;;43.30;28.10;;;;;;;2.92;82.20;101320.94;104439;1260;306014;-66
2024/03/10 08:18:38;;;;;;;47.50;29.90;;;;;;;3.04;82.00;101320.67;104606;1254;61353;-64
2024/03/10 08:21:04;;;;;;;40.00;26.80;;;;;;;3.19;82.15;101321.08;104780;1259;139112;-63
2024/03/10 08:23:31;;;;;;;41.70;27.90;;;;;;;3.35;81.98;101319.65;104718;1262;73858;-63
2024/03/10 08:26:00;;;;;;;39.30;27.50;;;;;;;3.48;81.73;101313.02;104380;1261;138454;-63
2024/03/10 08:28:30;;;;;;;38.70;26.70;;;;;;;3.62;81.69;101314.27;108778;1254;74763;-63
2024/03/10 08:30:58;;;;;;;37.60;26.90;;;;;;;3.76;81.42;101311.63;108831;1256;59187;-63
2024/03/10 08:33:25;;;;;;;42.70;26.80;;;;;;;3.90;81.05;101316.64;108701;1258;137855;-64
2024/03/10 08:35:53;;;;;;;41.60;28.40;;;;;;;4.11;81.25;101313.40;108893;1254;74950;-64
2024/03/10 08:38:26;;;;;;;36.50;25.90;;;;;;;4.30;80.86;101316.80;108769;1253;137893;-64
2024/03/10 08:40:54;;;;;;;38.90;26.50;;;;;;;4.51;80.83;101322.35;108795;1255;72874;-63
2024/03/10 08:43:24;;;;;;;35.70;25.00;;;;;;;4.77;80.88;101324.05;106801;1257;139010;-66
2024/03/10 08:45:51;;;;;;;35.90;25.10;;;;;;;4.99;80.35;101322.63;104718;1260;61351;-65
2024/03/10 08:48:18;;;;;;;36.20;24.20;;;;;;;5.14;79.98;101317.77;108842;1254;74985;-65
2024/03/10 08:50:44;;;;;;;36.50;23.80;;;;;;;5.25;79.59;101318.05;108750;1254;137883;-64
2024/03/10 08:53:13;;;;;;;34.30;24.30;;;;;;;5.31;79.17;101314.54;108790;1258;71705;-64
2024/03/10 08:55:40;;;;;;;36.90;24.40;;;;;;;5.44;79.07;101316.11;108634;1253;139108;-62
2024/03/10 08:58:08;;;;;;;37.10;24.50;;;;;;;5.63;79.16;101309.48;108877;1254;61193;-62
2024/03/10 09:00:34;;;;;;;39.70;27.60;;;;;;;5.72;78.65;101307.19;108849;1254;73386;-62
2024/03/10 09:03:01;;;;;;;35.50;24.10;;;;;;;5.89;78.75;101306.20;106826;1259;138867;-63
2024/03/10 09:05:29;;;;;;;35.50;24.70;;;;;;;6.10;78.39;101306.20;104127;1259;72822;-62
2024/03/10 09:07:57;;;;;;;32.10;23.10;;;;;;;6.21;77.82;101306.11;104183;1260;137869;-65
2024/03/10 09:10:25;;;;;;;31.90;23.70;;;;;;;6.30;77.66;101302.91;108257;1258;59210;-63
2024/03/10 09:12:52;;;;;;;34.50;23.30;;;;;;;6.46;77.62;101301.64;108379;1254;73562;-62
2024/03/10 09:15:19;;;;;;;35.50;22.50;;;;;;;6.59;77.05;101296.19;108713;1254;138255;-63
2024/03/10 09:17:46;;;;;;;32.60;23.90;;;;;;;6.71;76.86;101301.48;106012;1258;72581;-65
2024/03/10 09:20:13;;;;;;;29.40;21.60;;;;;;;6.86;76.69;101297.16;104467;1258;137843;-65
2024/03/10 09:22:40;;;;;;;30.10;22.70;;;;;;;6.96;76.34;101298.30;109030;1255;59133;-66
2024/03/10 09:25:12;;;;;;;30.90;22.30;;;;;;;6.98;75.79;101295.97;109083;1254;74723;-65
2024/03/10 09:27:40;;;;;;;31.10;21.90;;;;;;;6.86;75.32;101293.46;109080;1258;64425;-65
2024/03/10 09:30:08;;;;;;;30.20;22.20;;;;;;;6.79;75.17;101291.23;106743;1258;72839;-69
2024/03/10 09:32:35;;;;;;;28.60;22.70;;;;;;;6.81;75.06;101290.30;104887;1254;137711;-70
2024/03/10 09:35:03;;;;;;;30.80;22.80;;;;;;;6.77;74.75;101286.61;104817;1254;61236;-68
2024/03/10 09:37:32;;;;;;;31.40;23.00;;;;;;;6.74;74.85;101286.11;108570;1257;138221;-70
2024/03/10 09:40:05;;;;;;;35.40;23.60;;;;;;;6.75;74.66;101283.52;105153;1254;66284;-68
2024/03/10 09:42:32;;;;;;;32.10;21.90;;;;;;;6.73;74.47;101281.86;104990;1259;73908;-69
2024/03/10 09:44:59;;;;;;;31.70;21.70;;;;;;;6.79;74.65;101282.70;104924;1259;137818;-68
2024/03/10 09:47:26;;;;;;;31.90;22.50;;;;;;;6.84;74.38;101278.36;105809;1257;61228;-69
2024/03/10 09:49:52;;;;;;;35.50;24.80;;;;;;;6.84;74.30;101276.30;104357;1256;138066;-69
2024/03/10 09:52:20;;;;;;;35.10;24.30;;;;;;;6.92;74.34;101271.64;104924;1256;66830;-69
2024/03/10 09:54:48;;;;;;;28.70;22.00;;;;;;;7.01;74.02;101273.27;104879;1254;72888;-69
2024/03/10 09:57:15;;;;;;;28.20;22.00;;;;;;;7.07;73.85;101271.79;104658;1259;137576;-70
2024/03/10 09:59:43;;;;;;;36.00;23.80;;;;;;;7.10;73.76;101269.69;104878;1258;61312;-69
2024/03/10 10:02:20;;;;;;;35.50;23.30;;;;;;;7.05;73.38;101267.33;105009;1258;137850;-69
2024/03/10 10:04:53;;;;;;;33.40;22.30;;;;;;;6.96;73.19;101268.69;104984;1259;66958;-69
2024/03/10 10:07:23;;;;;;;30.40;21.60;;;;;;;6.95;73.25;101267.20;104819;1260;137995;-69
2024/03/10 10:09:55;;;;;;;32.20;21.40;;;;;;;6.94;73.16;101265.61;104927;1260;61346;-70
2024/03/10 10:12:21;;;;;;;28.40;20.50;;;;;;;6.96;73.16;101264.31;105281;1254;61328;-69
2024/03/10 10:14:48;;;;;;;34.20;21.00;;;;;;;6.98;72.90;101265.30;104849;1254;137614;-69
2024/03/10 10:17:17;;;;;;;26.60;19.90;;;;;;;6.95;72.57;101261.80;104996;1255;66499;-68
2024/03/10 10:19:44;;;;;;;31.20;21.10;;;;;;;6.89;72.39;101254.88;108965;1254;137947;-67
2024/03/10 10:22:12;;;;;;;31.80;22.00;;;;;;;6.93;72.44;101253.70;104949;1258;61176;-68
2024/03/10 10:24:38;;;;;;;28.10;20.50;;;;;;;6.99;72.47;101250.30;109156;1254;59970;-69
2024/03/10 10:27:05;;;;;;;27.10;19.20;;;;;;;7.16;72.59;101246.91;108866;1254;138703;-66
2024/03/10 10:29:48;;;;;;;26.50;19.70;;;;;;;7.29;72.35;101241.58;108934;1254;67046;-65
2024/03/10 10:32:22;;;;;;;29.20;20.30;;;;;;;7.38;72.03;101234.66;104854;1257;138294;-69
2024/03/10 10:34:52;;;;;;;29.10;19.80;;;;;;;7.43;71.73;101228.57;104914;1260;61236;-67
2024/03/10 10:37:20;;;;;;;30.10;19.50;;;;;;;7.48;71.83;101226.36;105759;1254;138099;-69
2024/03/10 10:39:47;;;;;;;26.20;19.60;;;;;;;7.67;71.92;101224.42;108220;1254;75037;-68
2024/03/10 10:42:14;;;;;;;28.00;19.50;;;;;;;7.93;71.92;101227.67;105025;1260;65563;-69
2024/03/10 10:44:40;;;;;;;26.90;19.80;;;;;;;8.17;71.58;101226.56;104771;1261;137702;-69
2024/03/10 10:47:08;;;;;;;25.50;19.80;;;;;;;8.35;71.26;101227.86;105340;1258;61256;-69
2024/03/10 10:49:35;;;;;;;30.10;19.70;;;;;;;8.41;70.67;101229.37;104674;1256;137776;-69
2024/03/10 10:52:02;;;;;;;26.70;18.90;;;;;;;8.41;70.38;101219.91;104805;1254;75079;-69
2024/03/10 10:54:29;;;;;;;27.40;17.80;;;;;;;8.46;70.35;101219.41;104935;1258;67264;-69
2024/03/10 10:56:56;;;;;;;27.90;19.50;;;;;;;8.49;70.14;101217.96;104877;1257;137904;-69
2024/03/10 10:59:27;;;;;;;29.10;19.00;;;;;;;8.50;69.76;101217.16;104889;1258;61372;-68
2024/03/10 11:02:06;;;;;;;26.70;19.40;;;;;;;8.46;69.59;101216.83;104911;1260;137972;-68
2024/03/10 11:04:36;;;;;;;28.40;18.30;;;;;;;8.47;69.66;101219.30;104821;1258;75838;-67
2024/03/10 11:07:05;;;;;;;26.20;18.80;;;;;;;8.45;69.40;101224.13;108813;1256;65591;-68
2024/03/10 11:09:31;;;;;;;27.60;18.90;;;;;;;8.40;69.06;101223.57;108313;1254;139835;-68
2024/03/10 11:11:58;;;;;;;26.80;17.90;;;;;;;8.36;68.98;101220.59;109109;1258;59545;-67
2024/03/10 11:14:26;;;;;;;26.40;17.70;;;;;;;8.42;69.13;101219.96;108960;1254;137836;-67
2024/03/10 11:17:15;;;;;;;29.60;17.60;;;;;;;8.47;68.95;101218.27;109147;1253;73489;-67
2024/03/10 11:19:52;;;;;;;27.60;15.90;;;;;;;8.50;68.71;101215.05;106624;1254;137949;-69
2024/03/10 11:22:27;;;;;;;27.40;17.90;;;;;;;8.61;68.86;101211.98;104969;1255;71781;-68
2024/03/10 11:25:16;;;;;;;31.70;20.20;;;;;;;8.74;68.79;101208.34;104849;1254;61387;-68
2024/03/10 11:27:44;;;;;;;34.40;20.30;;;;;;;8.87;68.80;101204.61;104932;1260;61241;-68